sensor_id;sensor_type;location;lat;lon;timestamp;P1;durP1;ratioP1;P2;durP2;ratioP2
77384;SDS011;66443;49.122;8.346;2023-07-09T00:00:59;6.88;;;4.53;;
77384;SDS011;66443;49.122;8.346;2023-07-09T00:03:28;8.32;;;5.07;;
77384;SDS011;66443;49.122;8.346;2023-07-09T00:05:53;7.05;;;4.68;;
77384;SDS011;66443;49.122;8.346;2023-07-09T00:08:25;5.50;;;4.57;;
77384;SDS011;66443;49.122;8.346;2023-07-09T00:10:52;5.65;;;5.03;;
77384;SDS011;66443;49.122;8.346;2023-07-09T00:13:21;7.90;;;4.70;;
77384;SDS011;66443;49.122;8.346;2023-07-09T00:15:47;6.28;;;5.25;;
77384;SDS011;66443;49.122;8.346;2023-07-09T00:18:12;8.40;;;4.55;;
77384;SDS011;66443;49.122;8.346;2023-07-09T00:20:37;6.82;;;5.07;;
77384;SDS011;66443;49.122;8.346;2023-07-09T00:23:03;5.55;;;4.90;;
77384;SDS011;66443;49.122;8.346;2023-07-09T00:25:30;5.23;;;4.83;;
77384;SDS011;66443;49.122;8.346;2023-07-09T00:27:56;8.30;;;4.70;;
77384;SDS011;66443;49.122;8.346;2023-07-09T00:30:22;6.75;;;4.80;;
77384;SDS011;66443;49.122;8.346;2023-07-09T00:32:51;8.43;;;4.82;;
77384;SDS011;66443;49.122;8.346;2023-07-09T00:35:18;7.03;;;5.22;;
77384;SDS011;66443;49.122;8.346;2023-07-09T00:37:43;5.15;;;4.43;;
77384;SDS011;66443;49.122;8.346;2023-07-09T00:40:17;6.95;;;4.70;;
77384;SDS011;66443;49.122;8.346;2023-07-09T00:42:47;6.15;;;5.13;;
77384;SDS011;66443;49.122;8.346;2023-07-09T00:45:20;6.80;;;4.75;;
77384;SDS011;66443;49.122;8.346;2023-07-09T00:47:52;5.07;;;4.60;;
77384;SDS011;66443;49.122;8.346;2023-07-09T00:50:35;7.50;;;5.82;;
77384;SDS011;66443;49.122;8.346;2023-07-09T00:53:02;6.57;;;5.27;;
77384;SDS011;66443;49.122;8.346;2023-07-09T00:55:32;7.82;;;5.22;;
77384;SDS011;66443;49.122;8.346;2023-07-09T00:58:00;6.13;;;5.45;;
77384;SDS011;66443;49.122;8.346;2023-07-09T01:00:34;6.83;;;5.33;;
77384;SDS011;66443;49.122;8.346;2023-07-09T01:03:11;10.98;;;6.82;;
77384;SDS011;66443;49.122;8.346;2023-07-09T01:05:38;8.40;;;4.97;;
77384;SDS011;66443;49.122;8.346;2023-07-09T01:08:06;6.57;;;5.90;;
77384;SDS011;66443;49.122;8.346;2023-07-09T01:10:34;5.93;;;5.43;;
77384;SDS011;66443;49.122;8.346;2023-07-09T01:13:02;6.35;;;5.38;;
77384;SDS011;66443;49.122;8.346;2023-07-09T01:15:27;5.57;;;5.07;;
77384;SDS011;66443;49.122;8.346;2023-07-09T01:17:53;6.47;;;4.90;;
77384;SDS011;66443;49.122;8.346;2023-07-09T01:20:21;5.30;;;4.78;;
77384;SDS011;66443;49.122;8.346;2023-07-09T01:22:47;6.35;;;4.80;;
77384;SDS011;66443;49.122;8.346;2023-07-09T01:25:14;6.00;;;5.40;;
77384;SDS011;66443;49.122;8.346;2023-07-09T01:27:42;6.60;;;5.93;;
77384;SDS011;66443;49.122;8.346;2023-07-09T01:30:13;6.60;;;5.70;;
77384;SDS011;66443;49.122;8.346;2023-07-09T01:32:41;8.18;;;5.90;;
77384;SDS011;66443;49.122;8.346;2023-07-09T01:35:14;8.02;;;5.82;;
77384;SDS011;66443;49.122;8.346;2023-07-09T01:37:40;6.83;;;5.70;;
77384;SDS011;66443;49.122;8.346;2023-07-09T01:40:10;11.40;;;5.85;;
77384;SDS011;66443;49.122;8.346;2023-07-09T01:42:35;8.10;;;6.10;;
77384;SDS011;66443;49.122;8.346;2023-07-09T01:45:03;7.45;;;6.05;;
77384;SDS011;66443;49.122;8.346;2023-07-09T01:47:29;7.20;;;6.07;;
77384;SDS011;66443;49.122;8.346;2023-07-09T01:49:54;10.57;;;6.57;;
77384;SDS011;66443;49.122;8.346;2023-07-09T01:52:27;6.63;;;6.03;;
77384;SDS011;66443;49.122;8.346;2023-07-09T01:54:53;7.53;;;5.93;;
77384;SDS011;66443;49.122;8.346;2023-07-09T01:57:25;9.60;;;6.00;;
77384;SDS011;66443;49.122;8.346;2023-07-09T01:59:57;6.00;;;5.40;;
77384;SDS011;66443;49.122;8.346;2023-07-09T02:02:24;8.27;;;6.15;;
77384;SDS011;66443;49.122;8.346;2023-07-09T02:04:55;9.83;;;6.07;;
77384;SDS011;66443;49.122;8.346;2023-07-09T02:07:22;9.90;;;6.00;;
77384;SDS011;66443;49.122;8.346;2023-07-09T02:09:50;8.02;;;6.60;;
77384;SDS011;66443;49.122;8.346;2023-07-09T02:12:15;11.10;;;5.73;;
77384;SDS011;66443;49.122;8.346;2023-07-09T02:14:41;8.00;;;5.70;;
77384;SDS011;66443;49.122;8.346;2023-07-09T02:17:06;8.37;;;5.73;;
77384;SDS011;66443;49.122;8.346;2023-07-09T02:19:32;7.50;;;6.27;;
77384;SDS011;66443;49.122;8.346;2023-07-09T02:21:57;6.50;;;5.83;;
77384;SDS011;66443;49.122;8.346;2023-07-09T02:24:23;7.83;;;6.57;;
77384;SDS011;66443;49.122;8.346;2023-07-09T02:26:59;9.27;;;6.33;;
77384;SDS011;66443;49.122;8.346;2023-07-09T02:29:25;8.43;;;6.23;;
77384;SDS011;66443;49.122;8.346;2023-07-09T02:31:51;10.10;;;5.50;;
77384;SDS011;66443;49.122;8.346;2023-07-09T02:34:17;6.17;;;5.60;;
77384;SDS011;66443;49.122;8.346;2023-07-09T02:36:42;8.90;;;5.27;;
77384;SDS011;66443;49.122;8.346;2023-07-09T02:39:11;6.03;;;5.27;;
77384;SDS011;66443;49.122;8.346;2023-07-09T02:41:37;8.27;;;6.90;;
77384;SDS011;66443;49.122;8.346;2023-07-09T02:44:03;9.50;;;5.67;;
77384;SDS011;66443;49.122;8.346;2023-07-09T02:46:28;8.53;;;6.27;;
77384;SDS011;66443;49.122;8.346;2023-07-09T02:48:54;6.73;;;5.47;;
77384;SDS011;66443;49.122;8.346;2023-07-09T02:51:20;7.27;;;6.53;;
77384;SDS011;66443;49.122;8.346;2023-07-09T02:53:45;7.00;;;6.40;;
77384;SDS011;66443;49.122;8.346;2023-07-09T02:56:10;6.73;;;6.23;;
77384;SDS011;66443;49.122;8.346;2023-07-09T02:58:35;7.70;;;7.00;;
77384;SDS011;66443;49.122;8.346;2023-07-09T03:01:00;7.57;;;6.37;;
77384;SDS011;66443;49.122;8.346;2023-07-09T03:03:26;8.33;;;7.23;;
77384;SDS011;66443;49.122;8.346;2023-07-09T03:05:53;11.17;;;6.37;;
77384;SDS011;66443;49.122;8.346;2023-07-09T03:08:18;8.47;;;7.03;;
77384;SDS011;66443;49.122;8.346;2023-07-09T03:10:43;7.40;;;6.77;;
77384;SDS011;66443;49.122;8.346;2023-07-09T03:13:09;8.43;;;6.47;;
77384;SDS011;66443;49.122;8.346;2023-07-09T03:15:34;8.30;;;6.57;;
77384;SDS011;66443;49.122;8.346;2023-07-09T03:17:59;6.93;;;6.20;;
77384;SDS011;66443;49.122;8.346;2023-07-09T03:20:24;8.77;;;6.43;;
77384;SDS011;66443;49.122;8.346;2023-07-09T03:22:50;8.27;;;6.53;;
77384;SDS011;66443;49.122;8.346;2023-07-09T03:25:15;7.83;;;7.00;;
77384;SDS011;66443;49.122;8.346;2023-07-09T03:27:40;6.33;;;5.83;;
77384;SDS011;66443;49.122;8.346;2023-07-09T03:30:06;7.50;;;6.47;;
77384;SDS011;66443;49.122;8.346;2023-07-09T03:32:31;7.80;;;7.10;;
77384;SDS011;66443;49.122;8.346;2023-07-09T03:34:56;7.23;;;6.20;;
77384;SDS011;66443;49.122;8.346;2023-07-09T03:37:21;12.47;;;6.70;;
77384;SDS011;66443;49.122;8.346;2023-07-09T03:39:47;8.90;;;7.53;;
77384;SDS011;66443;49.122;8.346;2023-07-09T03:42:12;11.23;;;7.43;;
77384;SDS011;66443;49.122;8.346;2023-07-09T03:44:37;12.37;;;7.80;;
77384;SDS011;66443;49.122;8.346;2023-07-09T03:47:02;9.00;;;8.10;;
77384;SDS011;66443;49.122;8.346;2023-07-09T03:49:28;11.00;;;7.43;;
77384;SDS011;66443;49.122;8.346;2023-07-09T03:51:53;6.73;;;5.93;;
77384;SDS011;66443;49.122;8.346;2023-07-09T03:54:18;8.17;;;6.87;;
77384;SDS011;66443;49.122;8.346;2023-07-09T03:56:43;9.73;;;6.70;;
77384;SDS011;66443;49.122;8.346;2023-07-09T03:59:09;7.40;;;6.70;;
77384;SDS011;66443;49.122;8.346;2023-07-09T04:01:34;10.10;;;7.27;;
77384;SDS011;66443;49.122;8.346;2023-07-09T04:03:59;7.50;;;6.87;;
77384;SDS011;66443;49.122;8.346;2023-07-09T04:06:25;8.57;;;6.77;;
77384;SDS011;66443;49.122;8.346;2023-07-09T04:08:50;7.80;;;7.17;;
77384;SDS011;66443;49.122;8.346;2023-07-09T04:11:15;7.13;;;6.57;;
77384;SDS011;66443;49.122;8.346;2023-07-09T04:13:40;10.73;;;6.93;;
77384;SDS011;66443;49.122;8.346;2023-07-09T04:16:05;11.13;;;7.10;;
77384;SDS011;66443;49.122;8.346;2023-07-09T04:18:30;8.80;;;7.03;;
77384;SDS011;66443;49.122;8.346;2023-07-09T04:20:56;7.37;;;6.20;;
77384;SDS011;66443;49.122;8.346;2023-07-09T04:23:21;8.23;;;5.93;;
77384;SDS011;66443;49.122;8.346;2023-07-09T04:25:46;9.83;;;6.60;;
77384;SDS011;66443;49.122;8.346;2023-07-09T04:28:11;10.97;;;6.17;;
77384;SDS011;66443;49.122;8.346;2023-07-09T04:30:37;6.70;;;6.00;;
77384;SDS011;66443;49.122;8.346;2023-07-09T04:33:02;6.77;;;6.17;;
77384;SDS011;66443;49.122;8.346;2023-07-09T04:35:27;7.97;;;6.90;;
77384;SDS011;66443;49.122;8.346;2023-07-09T04:37:52;6.73;;;6.07;;
77384;SDS011;66443;49.122;8.346;2023-07-09T04:40:18;7.30;;;6.70;;
77384;SDS011;66443;49.122;8.346;2023-07-09T04:42:44;7.07;;;6.37;;
77384;SDS011;66443;49.122;8.346;2023-07-09T04:45:10;6.20;;;5.57;;
77384;SDS011;66443;49.122;8.346;2023-07-09T04:47:35;8.13;;;5.47;;
77384;SDS011;66443;49.122;8.346;2023-07-09T04:50:01;10.03;;;5.73;;
77384;SDS011;66443;49.122;8.346;2023-07-09T04:52:26;7.23;;;6.50;;
77384;SDS011;66443;49.122;8.346;2023-07-09T04:54:51;8.40;;;5.90;;
77384;SDS011;66443;49.122;8.346;2023-07-09T04:57:17;7.43;;;6.80;;
77384;SDS011;66443;49.122;8.346;2023-07-09T04:59:42;7.23;;;6.63;;
77384;SDS011;66443;49.122;8.346;2023-07-09T05:02:08;6.33;;;5.73;;
77384;SDS011;66443;49.122;8.346;2023-07-09T05:04:33;6.37;;;5.87;;
77384;SDS011;66443;49.122;8.346;2023-07-09T05:06:58;6.80;;;6.23;;
77384;SDS011;66443;49.122;8.346;2023-07-09T05:09:24;6.35;;;5.78;;
77384;SDS011;66443;49.122;8.346;2023-07-09T05:11:49;8.65;;;6.13;;
77384;SDS011;66443;49.122;8.346;2023-07-09T05:14:15;6.80;;;6.20;;
77384;SDS011;66443;49.122;8.346;2023-07-09T05:16:40;6.72;;;6.05;;
77384;SDS011;66443;49.122;8.346;2023-07-09T05:19:09;8.68;;;6.65;;
77384;SDS011;66443;49.122;8.346;2023-07-09T05:21:34;7.43;;;6.20;;
77384;SDS011;66443;49.122;8.346;2023-07-09T05:23:59;6.57;;;5.95;;
77384;SDS011;66443;49.122;8.346;2023-07-09T05:26:24;6.85;;;6.15;;
77384;SDS011;66443;49.122;8.346;2023-07-09T05:28:50;13.70;;;6.13;;
77384;SDS011;66443;49.122;8.346;2023-07-09T05:31:15;8.63;;;6.10;;
77384;SDS011;66443;49.122;8.346;2023-07-09T05:33:40;8.52;;;6.80;;
77384;SDS011;66443;49.122;8.346;2023-07-09T05:36:05;7.65;;;6.20;;
77384;SDS011;66443;49.122;8.346;2023-07-09T05:38:32;7.50;;;5.97;;
77384;SDS011;66443;49.122;8.346;2023-07-09T05:41:01;6.13;;;5.53;;
77384;SDS011;66443;49.122;8.346;2023-07-09T05:43:26;6.72;;;5.95;;
77384;SDS011;66443;49.122;8.346;2023-07-09T05:45:51;5.82;;;5.32;;
77384;SDS011;66443;49.122;8.346;2023-07-09T05:48:18;6.20;;;5.60;;
77384;SDS011;66443;49.122;8.346;2023-07-09T05:50:43;6.68;;;5.38;;
77384;SDS011;66443;49.122;8.346;2023-07-09T05:53:08;6.70;;;5.75;;
77384;SDS011;66443;49.122;8.346;2023-07-09T05:55:33;6.07;;;5.22;;
77384;SDS011;66443;49.122;8.346;2023-07-09T05:57:59;6.80;;;5.30;;
77384;SDS011;66443;49.122;8.346;2023-07-09T06:00:24;6.28;;;4.57;;
77384;SDS011;66443;49.122;8.346;2023-07-09T06:02:49;8.63;;;4.95;;
77384;SDS011;66443;49.122;8.346;2023-07-09T06:05:14;6.27;;;4.33;;
77384;SDS011;66443;49.122;8.346;2023-07-09T06:07:40;7.88;;;4.97;;
77384;SDS011;66443;49.122;8.346;2023-07-09T06:10:06;7.78;;;4.93;;
77384;SDS011;66443;49.122;8.346;2023-07-09T06:12:31;5.32;;;4.93;;
77384;SDS011;66443;49.122;8.346;2023-07-09T06:14:56;5.90;;;5.40;;
77384;SDS011;66443;49.122;8.346;2023-07-09T06:17:21;5.83;;;5.23;;
77384;SDS011;66443;49.122;8.346;2023-07-09T06:19:46;6.90;;;4.90;;
77384;SDS011;66443;49.122;8.346;2023-07-09T06:22:12;13.13;;;5.90;;
77384;SDS011;66443;49.122;8.346;2023-07-09T06:24:37;11.95;;;5.15;;
77384;SDS011;66443;49.122;8.346;2023-07-09T06:27:02;6.93;;;4.90;;
77384;SDS011;66443;49.122;8.346;2023-07-09T06:29:27;5.60;;;5.07;;
77384;SDS011;66443;49.122;8.346;2023-07-09T06:31:53;6.05;;;5.45;;
77384;SDS011;66443;49.122;8.346;2023-07-09T06:34:18;5.73;;;5.23;;
77384;SDS011;66443;49.122;8.346;2023-07-09T06:36:43;4.95;;;4.35;;
77384;SDS011;66443;49.122;8.346;2023-07-09T06:39:08;5.05;;;4.65;;
77384;SDS011;66443;49.122;8.346;2023-07-09T06:41:33;6.28;;;4.82;;
77384;SDS011;66443;49.122;8.346;2023-07-09T06:44:04;5.43;;;4.93;;
77384;SDS011;66443;49.122;8.346;2023-07-09T06:46:29;6.10;;;4.75;;
77384;SDS011;66443;49.122;8.346;2023-07-09T06:48:54;5.82;;;5.32;;
77384;SDS011;66443;49.122;8.346;2023-07-09T06:51:19;6.88;;;5.15;;
77384;SDS011;66443;49.122;8.346;2023-07-09T06:53:45;6.82;;;5.03;;
77384;SDS011;66443;49.122;8.346;2023-07-09T06:56:13;6.15;;;5.32;;
77384;SDS011;66443;49.122;8.346;2023-07-09T06:58:38;4.93;;;4.57;;
77384;SDS011;66443;49.122;8.346;2023-07-09T07:01:04;6.07;;;4.40;;
77384;SDS011;66443;49.122;8.346;2023-07-09T07:03:30;5.10;;;4.70;;
77384;SDS011;66443;49.122;8.346;2023-07-09T07:05:55;5.18;;;4.68;;
77384;SDS011;66443;49.122;8.346;2023-07-09T07:08:21;5.85;;;5.28;;
77384;SDS011;66443;49.122;8.346;2023-07-09T07:10:48;5.30;;;4.80;;
77384;SDS011;66443;49.122;8.346;2023-07-09T07:13:13;7.53;;;5.35;;
77384;SDS011;66443;49.122;8.346;2023-07-09T07:15:39;8.70;;;5.50;;
77384;SDS011;66443;49.122;8.346;2023-07-09T07:18:04;7.60;;;4.93;;
77384;SDS011;66443;49.122;8.346;2023-07-09T07:20:30;5.97;;;5.25;;
77384;SDS011;66443;49.122;8.346;2023-07-09T07:22:55;5.70;;;4.78;;
77384;SDS011;66443;49.122;8.346;2023-07-09T07:25:21;5.30;;;4.90;;
77384;SDS011;66443;49.122;8.346;2023-07-09T07:27:46;5.55;;;4.82;;
77384;SDS011;66443;49.122;8.346;2023-07-09T07:30:11;4.97;;;4.57;;
77384;SDS011;66443;49.122;8.346;2023-07-09T07:32:37;5.43;;;4.93;;
77384;SDS011;66443;49.122;8.346;2023-07-09T07:35:03;5.35;;;4.85;;
77384;SDS011;66443;49.122;8.346;2023-07-09T07:37:28;5.15;;;4.70;;
77384;SDS011;66443;49.122;8.346;2023-07-09T07:39:53;6.37;;;4.77;;
77384;SDS011;66443;49.122;8.346;2023-07-09T07:42:18;5.90;;;4.53;;
77384;SDS011;66443;49.122;8.346;2023-07-09T07:44:44;9.20;;;5.45;;
77384;SDS011;66443;49.122;8.346;2023-07-09T07:47:10;5.45;;;4.95;;
77384;SDS011;66443;49.122;8.346;2023-07-09T07:49:36;5.75;;;5.15;;
77384;SDS011;66443;49.122;8.346;2023-07-09T07:52:02;5.55;;;4.63;;
77384;SDS011;66443;49.122;8.346;2023-07-09T07:54:28;7.68;;;5.20;;
77384;SDS011;66443;49.122;8.346;2023-07-09T07:56:53;4.97;;;4.57;;
77384;SDS011;66443;49.122;8.346;2023-07-09T07:59:18;5.90;;;5.40;;
77384;SDS011;66443;49.122;8.346;2023-07-09T08:01:43;5.53;;;5.03;;
77384;SDS011;66443;49.122;8.346;2023-07-09T08:04:09;4.95;;;4.55;;
77384;SDS011;66443;49.122;8.346;2023-07-09T08:06:34;6.10;;;5.03;;
77384;SDS011;66443;49.122;8.346;2023-07-09T08:09:00;6.25;;;4.88;;
77384;SDS011;66443;49.122;8.346;2023-07-09T08:11:26;5.80;;;5.00;;
77384;SDS011;66443;49.122;8.346;2023-07-09T08:13:53;5.38;;;4.80;;
77384;SDS011;66443;49.122;8.346;2023-07-09T08:16:18;5.20;;;4.78;;
77384;SDS011;66443;49.122;8.346;2023-07-09T08:18:43;4.75;;;4.35;;
77384;SDS011;66443;49.122;8.346;2023-07-09T08:21:08;4.90;;;4.50;;
77384;SDS011;66443;49.122;8.346;2023-07-09T08:23:34;5.00;;;4.55;;
77384;SDS011;66443;49.122;8.346;2023-07-09T08:26:00;5.70;;;5.20;;
77384;SDS011;66443;49.122;8.346;2023-07-09T08:28:27;5.10;;;4.57;;
77384;SDS011;66443;49.122;8.346;2023-07-09T08:30:53;6.97;;;4.57;;
77384;SDS011;66443;49.122;8.346;2023-07-09T08:33:18;5.68;;;4.55;;
77384;SDS011;66443;49.122;8.346;2023-07-09T08:35:43;7.47;;;4.68;;
77384;SDS011;66443;49.122;8.346;2023-07-09T08:38:09;5.13;;;4.28;;
77384;SDS011;66443;49.122;8.346;2023-07-09T08:40:35;4.97;;;4.32;;
77384;SDS011;66443;49.122;8.346;2023-07-09T08:43:06;5.18;;;4.68;;
77384;SDS011;66443;49.122;8.346;2023-07-09T08:45:39;4.78;;;4.38;;
77384;SDS011;66443;49.122;8.346;2023-07-09T08:48:09;4.88;;;4.47;;
77384;SDS011;66443;49.122;8.346;2023-07-09T08:50:38;4.65;;;4.32;;
77384;SDS011;66443;49.122;8.346;2023-07-09T08:53:07;4.80;;;4.13;;
77384;SDS011;66443;49.122;8.346;2023-07-09T08:55:34;4.50;;;4.20;;
77384;SDS011;66443;49.122;8.346;2023-07-09T08:58:09;5.38;;;4.60;;
77384;SDS011;66443;49.122;8.346;2023-07-09T09:00:40;5.80;;;4.50;;
77384;SDS011;66443;49.122;8.346;2023-07-09T09:05:39;5.15;;;4.65;;
77384;SDS011;66443;49.122;8.346;2023-07-09T09:08:29;7.65;;;4.95;;
77384;SDS011;66443;49.122;8.346;2023-07-09T09:10:56;8.68;;;4.85;;
77384;SDS011;66443;49.122;8.346;2023-07-09T09:13:23;6.28;;;4.50;;
77384;SDS011;66443;49.122;8.346;2023-07-09T09:15:49;4.65;;;4.25;;
77384;SDS011;66443;49.122;8.346;2023-07-09T09:18:23;5.40;;;4.65;;
77384;SDS011;66443;49.122;8.346;2023-07-09T09:20:57;4.60;;;4.20;;
77384;SDS011;66443;49.122;8.346;2023-07-09T09:23:25;5.03;;;4.50;;
77384;SDS011;66443;49.122;8.346;2023-07-09T09:25:54;5.07;;;4.63;;
77384;SDS011;66443;49.122;8.346;2023-07-09T09:28:21;4.85;;;4.50;;
77384;SDS011;66443;49.122;8.346;2023-07-09T09:30:47;4.93;;;4.53;;
77384;SDS011;66443;49.122;8.346;2023-07-09T09:33:12;6.40;;;4.67;;
77384;SDS011;66443;49.122;8.346;2023-07-09T09:35:41;4.63;;;4.22;;
77384;SDS011;66443;49.122;8.346;2023-07-09T09:38:12;5.80;;;4.60;;
77384;SDS011;66443;49.122;8.346;2023-07-09T09:40:38;5.03;;;4.20;;
77384;SDS011;66443;49.122;8.346;2023-07-09T09:43:09;4.63;;;4.22;;
77384;SDS011;66443;49.122;8.346;2023-07-09T09:45:38;5.07;;;4.60;;
77384;SDS011;66443;49.122;8.346;2023-07-09T09:48:16;4.50;;;4.10;;
77384;SDS011;66443;49.122;8.346;2023-07-09T09:50:41;6.32;;;4.70;;
77384;SDS011;66443;49.122;8.346;2023-07-09T09:53:07;4.90;;;4.35;;
77384;SDS011;66443;49.122;8.346;2023-07-09T09:55:33;4.00;;;3.70;;
77384;SDS011;66443;49.122;8.346;2023-07-09T09:57:58;4.65;;;4.05;;
77384;SDS011;66443;49.122;8.346;2023-07-09T10:00:25;5.45;;;4.43;;
77384;SDS011;66443;49.122;8.346;2023-07-09T10:02:56;8.57;;;4.45;;
77384;SDS011;66443;49.122;8.346;2023-07-09T10:05:26;8.95;;;4.43;;
77384;SDS011;66443;49.122;8.346;2023-07-09T10:10:20;4.97;;;4.47;;
77384;SDS011;66443;49.122;8.346;2023-07-09T10:12:59;5.85;;;4.63;;
77384;SDS011;66443;49.122;8.346;2023-07-09T10:23:09;4.63;;;4.22;;
77384;SDS011;66443;49.122;8.346;2023-07-09T10:30:49;5.35;;;4.55;;
77384;SDS011;66443;49.122;8.346;2023-07-09T10:33:22;5.47;;;4.30;;
77384;SDS011;66443;49.122;8.346;2023-07-09T10:38:37;4.78;;;4.38;;
77384;SDS011;66443;49.122;8.346;2023-07-09T10:41:07;5.22;;;4.70;;
77384;SDS011;66443;49.122;8.346;2023-07-09T10:43:38;4.47;;;4.07;;
77384;SDS011;66443;49.122;8.346;2023-07-09T10:46:11;4.65;;;4.05;;
77384;SDS011;66443;49.122;8.346;2023-07-09T10:48:38;4.22;;;3.83;;
77384;SDS011;66443;49.122;8.346;2023-07-09T10:51:07;4.55;;;3.60;;
77384;SDS011;66443;49.122;8.346;2023-07-09T10:53:41;3.78;;;3.47;;
77384;SDS011;66443;49.122;8.346;2023-07-09T10:56:11;3.80;;;3.50;;
77384;SDS011;66443;49.122;8.346;2023-07-09T10:58:54;5.03;;;4.07;;
77384;SDS011;66443;49.122;8.346;2023-07-09T11:01:27;4.32;;;3.92;;
77384;SDS011;66443;49.122;8.346;2023-07-09T11:03:55;3.42;;;3.13;;
77384;SDS011;66443;49.122;8.346;2023-07-09T11:06:26;4.97;;;3.15;;
77384;SDS011;66443;49.122;8.346;2023-07-09T11:08:54;4.40;;;3.65;;
77384;SDS011;66443;49.122;8.346;2023-07-09T11:13:56;4.03;;;3.47;;
77384;SDS011;66443;49.122;8.346;2023-07-09T11:16:27;3.25;;;3.05;;
77384;SDS011;66443;49.122;8.346;2023-07-09T11:18:55;3.58;;;3.28;;
77384;SDS011;66443;49.122;8.346;2023-07-09T11:21:21;4.40;;;2.97;;
77384;SDS011;66443;49.122;8.346;2023-07-09T11:23:49;3.40;;;3.10;;
77384;SDS011;66443;49.122;8.346;2023-07-09T11:26:21;3.38;;;2.97;;
77384;SDS011;66443;49.122;8.346;2023-07-09T11:28:48;4.38;;;3.28;;
77384;SDS011;66443;49.122;8.346;2023-07-09T11:33:47;3.88;;;2.92;;
77384;SDS011;66443;49.122;8.346;2023-07-09T11:36:14;9.13;;;3.08;;
77384;SDS011;66443;49.122;8.346;2023-07-09T11:38:44;5.00;;;3.13;;
77384;SDS011;66443;49.122;8.346;2023-07-09T11:41:27;3.58;;;3.08;;
77384;SDS011;66443;49.122;8.346;2023-07-09T11:46:36;4.00;;;3.60;;
77384;SDS011;66443;49.122;8.346;2023-07-09T11:49:04;2.95;;;2.65;;
77384;SDS011;66443;49.122;8.346;2023-07-09T11:51:38;3.47;;;3.17;;
77384;SDS011;66443;49.122;8.346;2023-07-09T11:54:05;3.85;;;2.72;;
77384;SDS011;66443;49.122;8.346;2023-07-09T11:56:30;3.63;;;3.38;;
77384;SDS011;66443;49.122;8.346;2023-07-09T11:58:56;3.55;;;3.17;;
77384;SDS011;66443;49.122;8.346;2023-07-09T12:01:22;2.70;;;2.50;;
77384;SDS011;66443;49.122;8.346;2023-07-09T12:03:48;4.22;;;2.85;;
77384;SDS011;66443;49.122;8.346;2023-07-09T12:08:45;2.90;;;2.70;;
77384;SDS011;66443;49.122;8.346;2023-07-09T12:11:21;3.63;;;3.00;;
77384;SDS011;66443;49.122;8.346;2023-07-09T12:13:47;3.75;;;3.17;;
77384;SDS011;66443;49.122;8.346;2023-07-09T12:16:19;4.00;;;2.80;;
77384;SDS011;66443;49.122;8.346;2023-07-09T12:18:45;2.90;;;2.70;;
77384;SDS011;66443;49.122;8.346;2023-07-09T12:21:11;3.58;;;2.88;;
77384;SDS011;66443;49.122;8.346;2023-07-09T12:23:36;3.70;;;3.33;;
77384;SDS011;66443;49.122;8.346;2023-07-09T12:26:04;3.15;;;2.67;;
77384;SDS011;66443;49.122;8.346;2023-07-09T12:28:29;3.90;;;3.00;;
77384;SDS011;66443;49.122;8.346;2023-07-09T12:30:55;3.08;;;2.70;;
77384;SDS011;66443;49.122;8.346;2023-07-09T12:33:21;5.88;;;3.25;;
77384;SDS011;66443;49.122;8.346;2023-07-09T12:35:47;3.65;;;2.90;;
77384;SDS011;66443;49.122;8.346;2023-07-09T12:38:17;2.80;;;2.60;;
77384;SDS011;66443;49.122;8.346;2023-07-09T12:40:43;2.97;;;2.78;;
77384;SDS011;66443;49.122;8.346;2023-07-09T12:43:09;2.33;;;2.20;;
77384;SDS011;66443;49.122;8.346;2023-07-09T12:45:35;3.75;;;3.35;;
77384;SDS011;66443;49.122;8.346;2023-07-09T12:48:00;3.53;;;2.70;;
77384;SDS011;66443;49.122;8.346;2023-07-09T12:50:33;4.10;;;2.90;;
77384;SDS011;66443;49.122;8.346;2023-07-09T12:53:02;4.03;;;2.78;;
77384;SDS011;66443;49.122;8.346;2023-07-09T12:55:28;6.60;;;3.10;;
77384;SDS011;66443;49.122;8.346;2023-07-09T12:57:56;2.60;;;2.40;;
77384;SDS011;66443;49.122;8.346;2023-07-09T13:00:22;3.90;;;2.75;;
77384;SDS011;66443;49.122;8.346;2023-07-09T13:02:52;2.60;;;2.35;;
77384;SDS011;66443;49.122;8.346;2023-07-09T13:05:19;3.05;;;2.70;;
77384;SDS011;66443;49.122;8.346;2023-07-09T13:07:52;3.08;;;2.83;;
77384;SDS011;66443;49.122;8.346;2023-07-09T13:10:19;5.03;;;3.13;;
77384;SDS011;66443;49.122;8.346;2023-07-09T13:12:49;8.18;;;2.97;;
77384;SDS011;66443;49.122;8.346;2023-07-09T13:17:49;3.25;;;2.95;;
77384;SDS011;66443;49.122;8.346;2023-07-09T13:20:14;4.67;;;2.97;;
77384;SDS011;66443;49.122;8.346;2023-07-09T13:22:40;4.25;;;3.00;;
77384;SDS011;66443;49.122;8.346;2023-07-09T13:25:07;4.47;;;3.10;;
77384;SDS011;66443;49.122;8.346;2023-07-09T13:27:33;3.58;;;2.47;;
77384;SDS011;66443;49.122;8.346;2023-07-09T13:29:58;2.80;;;2.70;;
77384;SDS011;66443;49.122;8.346;2023-07-09T13:32:23;3.00;;;2.80;;
77384;SDS011;66443;49.122;8.346;2023-07-09T13:34:48;2.87;;;2.40;;
77384;SDS011;66443;49.122;8.346;2023-07-09T13:37:14;3.53;;;3.22;;
77384;SDS011;66443;49.122;8.346;2023-07-09T13:39:40;3.53;;;2.60;;
77384;SDS011;66443;49.122;8.346;2023-07-09T13:42:13;3.13;;;2.80;;
77384;SDS011;66443;49.122;8.346;2023-07-09T13:44:38;2.80;;;2.60;;
77384;SDS011;66443;49.122;8.346;2023-07-09T13:47:04;2.90;;;2.70;;
77384;SDS011;66443;49.122;8.346;2023-07-09T13:49:30;3.30;;;3.00;;
77384;SDS011;66443;49.122;8.346;2023-07-09T13:51:58;3.20;;;2.93;;
77384;SDS011;66443;49.122;8.346;2023-07-09T13:54:26;3.78;;;3.03;;
77384;SDS011;66443;49.122;8.346;2023-07-09T13:56:52;3.63;;;2.72;;
77384;SDS011;66443;49.122;8.346;2023-07-09T14:01:42;3.53;;;3.05;;
77384;SDS011;66443;49.122;8.346;2023-07-09T14:04:08;6.10;;;2.73;;
77384;SDS011;66443;49.122;8.346;2023-07-09T14:06:34;2.63;;;2.35;;
77384;SDS011;66443;49.122;8.346;2023-07-09T14:09:00;3.65;;;3.35;;
77384;SDS011;66443;49.122;8.346;2023-07-09T14:11:25;4.32;;;2.70;;
77384;SDS011;66443;49.122;8.346;2023-07-09T14:13:50;2.83;;;2.37;;
77384;SDS011;66443;49.122;8.346;2023-07-09T14:16:17;3.53;;;2.95;;
77384;SDS011;66443;49.122;8.346;2023-07-09T14:18:42;3.58;;;3.28;;
77384;SDS011;66443;49.122;8.346;2023-07-09T14:21:12;3.70;;;3.40;;
77384;SDS011;66443;49.122;8.346;2023-07-09T14:23:38;2.88;;;2.58;;
77384;SDS011;66443;49.122;8.346;2023-07-09T14:26:03;3.90;;;3.60;;
77384;SDS011;66443;49.122;8.346;2023-07-09T14:28:29;4.57;;;3.28;;
77384;SDS011;66443;49.122;8.346;2023-07-09T14:30:54;3.60;;;3.30;;
77384;SDS011;66443;49.122;8.346;2023-07-09T14:33:20;3.17;;;2.97;;
77384;SDS011;66443;49.122;8.346;2023-07-09T14:35:45;3.60;;;3.40;;
77384;SDS011;66443;49.122;8.346;2023-07-09T14:38:15;3.85;;;2.83;;
77384;SDS011;66443;49.122;8.346;2023-07-09T14:40:41;3.35;;;3.15;;
77384;SDS011;66443;49.122;8.346;2023-07-09T14:43:08;3.08;;;2.65;;
77384;SDS011;66443;49.122;8.346;2023-07-09T14:45:35;3.28;;;2.78;;
77384;SDS011;66443;49.122;8.346;2023-07-09T14:48:00;3.67;;;3.23;;
77384;SDS011;66443;49.122;8.346;2023-07-09T14:50:25;3.70;;;2.80;;
77384;SDS011;66443;49.122;8.346;2023-07-09T14:52:51;4.15;;;2.60;;
77384;SDS011;66443;49.122;8.346;2023-07-09T14:55:17;3.00;;;2.77;;
77384;SDS011;66443;49.122;8.346;2023-07-09T14:57:43;2.90;;;2.70;;
77384;SDS011;66443;49.122;8.346;2023-07-09T15:00:13;3.80;;;3.50;;
77384;SDS011;66443;49.122;8.346;2023-07-09T15:02:39;2.95;;;2.75;;
77384;SDS011;66443;49.122;8.346;2023-07-09T15:05:06;3.78;;;3.08;;
77384;SDS011;66443;49.122;8.346;2023-07-09T15:07:34;5.10;;;3.10;;
77384;SDS011;66443;49.122;8.346;2023-07-09T15:09:59;3.27;;;3.07;;
77384;SDS011;66443;49.122;8.346;2023-07-09T15:12:29;3.30;;;3.00;;
77384;SDS011;66443;49.122;8.346;2023-07-09T15:15:18;2.97;;;2.70;;
77384;SDS011;66443;49.122;8.346;2023-07-09T15:17:41;3.78;;;2.80;;
77384;SDS011;66443;49.122;8.346;2023-07-09T15:20:12;3.30;;;2.70;;
77384;SDS011;66443;49.122;8.346;2023-07-09T15:22:37;4.80;;;3.20;;